Terminal Aerodrome Forecast
Issued by NWS Wichita, KS

Home | Current Version | Previous Version | Graphics & Text | Print | Product List | Glossary On
Versions: 1 2 3 4 5 6 7 8 9 10 11 12 13 14 15 16 17 18 19
146
FTUS43 KICT 170528
TAFICT
TAF
KICT 170528Z 1706/1806 19010KT P6SM FEW200 WS020/22035KT
     FM171200 18009KT P6SM SKC
     FM171800 19014G20KT P6SM FEW250
     FM180000 18007KT P6SM SCT100 BKN200=

USA.gov is the U.S. government's official web portal to all federal, state and local government web resources and services.